createdAt,value
2023-05-24T00:00:28.928Z,11.65
2023-05-24T00:02:57.687Z,11.89
2023-05-24T00:05:24.452Z,11.88
2023-05-24T00:07:51.008Z,11.78
2023-05-24T00:10:17.459Z,11.79
2023-05-24T00:12:44.105Z,11.62
2023-05-24T00:15:10.864Z,11.78
2023-05-24T00:17:41.385Z,11.65
2023-05-24T00:20:11.027Z,11.72
2023-05-24T00:22:38.825Z,11.52
2023-05-24T00:25:05.940Z,11.53
2023-05-24T00:27:33.090Z,11.50
2023-05-24T00:30:00.054Z,11.62
2023-05-24T00:32:28.217Z,11.56
2023-05-24T00:34:56.697Z,11.34
2023-05-24T00:37:23.451Z,11.36
2023-05-24T00:39:50.211Z,11.22
2023-05-24T00:42:17.372Z,11.35
2023-05-24T00:44:43.875Z,11.33
2023-05-24T00:47:10.592Z,11.02
2023-05-24T00:49:37.193Z,11.08
2023-05-24T00:52:06.438Z,11.15
2023-05-24T00:54:33.047Z,11.02
2023-05-24T00:56:59.644Z,11.09
2023-05-24T00:59:27.126Z,11.08
2023-05-24T01:01:55.448Z,10.98
2023-05-24T01:04:23.048Z,11.06
2023-05-24T01:07:18.078Z,11.02
2023-05-24T01:10:09.852Z,10.94
2023-05-24T01:13:12.551Z,10.59
2023-05-24T01:16:00.039Z,10.76
2023-05-24T01:18:33.164Z,10.50
2023-05-24T01:21:19.288Z,10.65
2023-05-24T01:23:57.899Z,10.26
2023-05-24T01:27:08.424Z,10.22
2023-05-24T01:29:36.228Z,10.33
2023-05-24T01:32:03.746Z,10.29
2023-05-24T01:34:30.575Z,10.30
2023-05-24T01:36:57.082Z,10.40
2023-05-24T01:39:26.025Z,10.39
2023-05-24T01:42:04.137Z,10.37
2023-05-24T01:45:09.360Z,10.40
2023-05-24T01:47:44.651Z,10.56
2023-05-24T01:50:24.383Z,10.39
2023-05-24T01:52:53.470Z,10.35
2023-05-24T01:55:21.396Z,10.43
2023-05-24T01:57:51.670Z,10.22
2023-05-24T02:00:19.690Z,10.07
2023-05-24T02:02:46.746Z,10.12
2023-05-24T02:05:13.591Z,10.27
2023-05-24T02:07:41.884Z,10.16
2023-05-24T02:10:08.939Z,10.06
2023-05-24T02:12:35.562Z,9.96
2023-05-24T02:15:02.240Z,9.99
2023-05-24T02:17:28.819Z,9.87
2023-05-24T02:19:55.479Z,10.04
2023-05-24T02:22:23.082Z,10.09
2023-05-24T02:24:49.644Z,9.92
2023-05-24T02:27:16.171Z,9.93
2023-05-24T02:29:42.681Z,10.15
2023-05-24T02:32:09.245Z,9.95
2023-05-24T02:34:35.952Z,9.83
2023-05-24T02:37:02.508Z,9.75
2023-05-24T02:39:28.966Z,9.62
2023-05-24T02:41:55.472Z,9.73
2023-05-24T02:44:21.940Z,9.76
2023-05-24T02:46:48.665Z,9.64
2023-05-24T02:49:15.576Z,9.65
2023-05-24T02:51:42.171Z,9.84
2023-05-24T02:54:08.976Z,9.86
2023-05-24T02:56:35.441Z,9.51
2023-05-24T02:59:02.839Z,9.69
2023-05-24T03:01:30.181Z,9.76
2023-05-24T03:03:58.474Z,10.14
2023-05-24T03:06:25.465Z,9.67
2023-05-24T03:08:52.100Z,9.64
2023-05-24T03:11:22.153Z,9.65
2023-05-24T03:13:49.545Z,9.33
2023-05-24T03:16:16.969Z,9.45
2023-05-24T03:18:46.236Z,9.47
2023-05-24T03:21:12.970Z,9.41
2023-05-24T03:23:40.722Z,9.40
2023-05-24T03:26:07.424Z,9.57
2023-05-24T03:28:34.007Z,9.60
2023-05-24T03:31:00.978Z,9.56
2023-05-24T03:33:27.655Z,9.46
2023-05-24T03:35:55.081Z,9.50
2023-05-24T03:38:21.791Z,9.54
2023-05-24T03:40:48.392Z,9.63
2023-05-24T03:43:18.485Z,9.59
2023-05-24T03:45:48.531Z,9.83
2023-05-24T03:48:15.573Z,9.92
2023-05-24T03:50:42.598Z,9.91
2023-05-24T03:53:09.425Z,10.21
2023-05-24T03:55:36.107Z,10.02
2023-05-24T03:58:02.725Z,9.84
2023-05-24T04:00:29.180Z,9.47
2023-05-24T04:02:56.484Z,9.94
2023-05-24T04:05:27.314Z,10.05
2023-05-24T04:07:54.019Z,9.81
2023-05-24T04:10:20.530Z,9.58
2023-05-24T04:12:48.241Z,9.76
2023-05-24T04:15:15.228Z,9.98
2023-05-24T04:17:43.966Z,9.99
2023-05-24T04:20:11.916Z,10.10
2023-05-24T04:22:38.915Z,10.24
2023-05-24T04:25:06.644Z,10.14
2023-05-24T04:27:33.406Z,10.24
2023-05-24T04:30:00.515Z,9.67
2023-05-24T04:32:30.431Z,10.15
2023-05-24T04:34:57.054Z,10.09
2023-05-24T04:37:24.764Z,10.03
2023-05-24T04:39:51.720Z,10.25
2023-05-24T04:42:18.564Z,9.51
2023-05-24T04:44:45.184Z,9.74
2023-05-24T04:47:12.840Z,9.49
2023-05-24T04:49:39.688Z,9.76
2023-05-24T04:52:07.376Z,9.95
2023-05-24T04:54:34.331Z,10.03
2023-05-24T04:57:01.188Z,9.74
2023-05-24T04:59:27.699Z,9.67
2023-05-24T05:01:54.467Z,10.06
2023-05-24T05:04:21.033Z,9.95
2023-05-24T05:06:48.335Z,10.19
2023-05-24T05:09:15.895Z,10.17
2023-05-24T05:11:42.759Z,10.21
2023-05-24T05:14:09.852Z,9.85
2023-05-24T05:16:37.352Z,10.62
2023-05-24T05:19:04.824Z,10.64
2023-05-24T05:21:36.456Z,10.25
2023-05-24T05:24:03.889Z,10.57
2023-05-24T05:26:30.441Z,10.23
2023-05-24T05:28:57.371Z,10.40
2023-05-24T05:31:24.610Z,10.26
2023-05-24T05:33:51.260Z,10.23
2023-05-24T05:36:18.422Z,10.36
2023-05-24T05:38:45.221Z,10.13
2023-05-24T05:41:12.052Z,10.14
2023-05-24T05:43:38.846Z,9.72
2023-05-24T05:46:05.558Z,10.24
2023-05-24T05:48:32.197Z,10.07
2023-05-24T05:50:58.932Z,9.81
2023-05-24T05:53:25.395Z,9.82
2023-05-24T05:55:52.114Z,9.86
2023-05-24T05:58:18.629Z,9.95
2023-05-24T06:00:45.066Z,10.06
2023-05-24T06:03:11.765Z,9.98
2023-05-24T06:05:38.506Z,9.93
2023-05-24T06:08:05.106Z,10.28
2023-05-24T06:10:31.658Z,10.15
2023-05-24T06:12:58.091Z,10.58
2023-05-24T06:15:24.650Z,10.10
2023-05-24T06:17:52.406Z,10.39
2023-05-24T06:20:19.464Z,10.27
2023-05-24T06:22:46.378Z,10.62
2023-05-24T06:25:19.072Z,10.38
2023-05-24T06:27:45.734Z,9.70
2023-05-24T06:30:13.444Z,10.38
2023-05-24T06:32:40.387Z,10.62
2023-05-24T06:35:07.980Z,10.64
2023-05-24T06:37:34.824Z,10.41
2023-05-24T06:40:01.802Z,10.56
2023-05-24T06:42:28.315Z,10.33
2023-05-24T06:44:54.745Z,10.92
2023-05-24T06:47:22.285Z,10.85
2023-05-24T06:49:49.914Z,10.52
2023-05-24T06:52:16.661Z,11.14
2023-05-24T06:54:43.275Z,10.86
2023-05-24T06:57:09.723Z,11.52
2023-05-24T06:59:36.234Z,11.15
2023-05-24T07:02:03.932Z,11.02
2023-05-24T07:04:31.558Z,11.03
2023-05-24T07:06:58.604Z,11.27
2023-05-24T07:09:25.281Z,11.78
2023-05-24T07:11:52.457Z,11.83
2023-05-24T07:14:18.954Z,11.94
2023-05-24T07:16:45.487Z,11.72
2023-05-24T07:19:13.504Z,11.98
2023-05-24T07:21:40.089Z,10.99
2023-05-24T07:24:06.970Z,11.23
2023-05-24T07:26:33.656Z,11.34
2023-05-24T07:29:00.125Z,11.07
2023-05-24T07:31:31.479Z,11.06
2023-05-24T07:33:58.440Z,11.05
2023-05-24T07:36:26.163Z,11.10
2023-05-24T07:38:53.124Z,11.21
2023-05-24T07:41:19.600Z,11.68
2023-05-24T07:43:46.486Z,11.63
2023-05-24T07:46:13.133Z,11.23
2023-05-24T07:48:39.664Z,11.76
2023-05-24T07:51:06.175Z,12.11
2023-05-24T07:53:34.116Z,12.05
2023-05-24T07:56:00.621Z,11.91
2023-05-24T07:58:27.594Z,11.76
2023-05-24T08:00:54.257Z,12.00
2023-05-24T08:03:20.862Z,12.32
2023-05-24T08:05:47.643Z,11.21
2023-05-24T08:08:14.637Z,12.16
2023-05-24T08:10:41.212Z,11.31
2023-05-24T08:13:07.965Z,10.84
2023-05-24T08:15:34.471Z,11.44
2023-05-24T08:18:01.008Z,11.32
2023-05-24T08:20:28.349Z,11.79
2023-05-24T08:22:54.852Z,11.44
2023-05-24T08:25:21.334Z,11.15
2023-05-24T08:27:48.063Z,11.26
2023-05-24T08:30:14.667Z,11.13
2023-05-24T08:32:41.240Z,11.30
2023-05-24T08:35:19.252Z,11.23
2023-05-24T08:37:47.983Z,11.57
2023-05-24T08:40:14.894Z,11.59
2023-05-24T08:42:42.066Z,12.39
2023-05-24T08:45:12.055Z,11.93
2023-05-24T08:47:39.244Z,12.13
2023-05-24T08:50:06.773Z,12.47
2023-05-24T08:52:33.932Z,12.14
2023-05-24T08:55:01.090Z,12.42
2023-05-24T08:57:28.300Z,12.48
2023-05-24T08:59:57.832Z,11.58
2023-05-24T09:02:24.629Z,12.05
2023-05-24T09:04:53.318Z,12.62
2023-05-24T09:07:24.237Z,12.63
2023-05-24T09:09:58.652Z,12.89
2023-05-24T09:12:36.626Z,12.31
2023-05-24T09:15:06.969Z,12.85
2023-05-24T09:17:38.206Z,12.64
2023-05-24T09:20:11.183Z,13.34
2023-05-24T09:22:42.127Z,13.05
2023-05-24T09:25:11.325Z,13.09
2023-05-24T09:27:38.491Z,12.28
2023-05-24T09:30:10.253Z,13.23
2023-05-24T09:32:37.151Z,12.54
2023-05-24T09:35:08.208Z,13.14
2023-05-24T09:37:36.746Z,13.20
2023-05-24T09:40:06.879Z,13.46
2023-05-24T09:42:33.592Z,13.01
2023-05-24T09:45:11.956Z,13.94
2023-05-24T09:47:43.099Z,13.34
2023-05-24T09:50:17.523Z,13.91
2023-05-24T09:52:45.073Z,13.59
2023-05-24T09:55:13.585Z,14.20
2023-05-24T09:57:40.310Z,13.71
2023-05-24T10:00:17.687Z,13.56
2023-05-24T10:02:52.995Z,13.13
2023-05-24T10:05:21.191Z,14.11
2023-05-24T10:07:47.925Z,13.01
2023-05-24T10:10:14.661Z,13.62
2023-05-24T10:12:44.093Z,13.83
2023-05-24T10:15:11.186Z,13.54
2023-05-24T10:17:37.969Z,12.69
2023-05-24T10:20:06.872Z,13.15
2023-05-24T10:22:40.510Z,13.71
2023-05-24T10:25:10.788Z,14.32
2023-05-24T10:27:38.789Z,13.73
2023-05-24T10:30:13.792Z,13.72
2023-05-24T10:32:44.621Z,13.00
2023-05-24T10:35:12.450Z,12.97
2023-05-24T10:37:39.245Z,13.62
2023-05-24T10:40:09.902Z,13.65
2023-05-24T10:42:38.912Z,13.84
2023-05-24T10:45:27.418Z,13.43
2023-05-24T10:47:54.515Z,14.10
2023-05-24T10:50:22.228Z,13.94
2023-05-24T10:52:49.424Z,13.23
2023-05-24T10:55:19.120Z,13.11
2023-05-24T10:57:45.710Z,13.66
2023-05-24T11:00:48.293Z,14.30
2023-05-24T11:03:23.434Z,13.91
2023-05-24T11:05:51.755Z,14.27
2023-05-24T11:08:35.360Z,13.74
2023-05-24T11:11:19.104Z,13.49
2023-05-24T11:13:49.449Z,14.59
2023-05-24T11:16:40.057Z,14.80
2023-05-24T11:19:17.264Z,15.21
2023-05-24T11:21:46.403Z,14.95
2023-05-24T11:24:13.591Z,14.85
2023-05-24T11:26:40.499Z,14.68
2023-05-24T11:29:07.447Z,14.86
2023-05-24T11:31:36.209Z,15.53
2023-05-24T11:34:04.613Z,14.94
2023-05-24T11:36:33.052Z,14.63
2023-05-24T11:38:59.655Z,15.10
2023-05-24T11:41:27.204Z,14.19
2023-05-24T11:43:53.834Z,13.57
2023-05-24T11:46:20.512Z,14.02
2023-05-24T11:48:57.464Z,14.78
2023-05-24T11:51:31.759Z,15.43
2023-05-24T11:53:59.146Z,15.12
2023-05-24T11:56:29.763Z,15.53
2023-05-24T11:59:15.524Z,15.36
2023-05-24T12:01:42.495Z,14.08
2023-05-24T12:04:09.999Z,14.21
2023-05-24T12:06:39.517Z,15.02
2023-05-24T12:09:10.840Z,14.83
2023-05-24T12:11:42.181Z,15.37
2023-05-24T12:14:13.681Z,15.53
2023-05-24T12:16:42.592Z,15.31
2023-05-24T12:19:31.826Z,14.67
2023-05-24T12:22:00.066Z,15.25
2023-05-24T12:24:27.518Z,15.46
2023-05-24T12:27:01.637Z,15.11
2023-05-24T12:29:33.083Z,14.88
2023-05-24T12:32:00.006Z,14.85
2023-05-24T12:34:26.710Z,15.55
2023-05-24T12:36:53.197Z,15.69
2023-05-24T12:39:36.315Z,14.87
2023-05-24T12:42:04.006Z,14.37
2023-05-24T12:44:32.325Z,15.29
2023-05-24T12:46:59.397Z,14.31
2023-05-24T12:49:26.823Z,14.68
2023-05-24T12:51:55.090Z,14.27
2023-05-24T12:54:26.691Z,13.81
2023-05-24T12:56:56.651Z,13.71
2023-05-24T12:59:23.828Z,13.75
2023-05-24T13:01:51.866Z,13.29
2023-05-24T13:04:20.950Z,13.54
2023-05-24T13:06:48.714Z,14.12
2023-05-24T13:09:18.036Z,13.90
2023-05-24T13:11:45.406Z,14.62
2023-05-24T13:14:12.758Z,13.66
2023-05-24T13:16:39.539Z,13.93
2023-05-24T13:19:06.165Z,14.13
2023-05-24T13:21:32.715Z,13.59
2023-05-24T13:23:59.369Z,13.57
2023-05-24T13:26:26.084Z,13.94
2023-05-24T13:31:22.087Z,13.93
2023-05-24T13:33:49.153Z,13.96
2023-05-24T13:36:17.040Z,13.55
2023-05-24T13:38:43.593Z,13.51
2023-05-24T13:41:10.028Z,14.10
2023-05-24T13:43:36.539Z,13.44
2023-05-24T13:46:03.274Z,13.63
2023-05-24T13:48:29.861Z,13.39
2023-05-24T13:50:56.865Z,13.10
2023-05-24T13:53:23.585Z,13.27
2023-05-24T13:55:50.357Z,14.04
2023-05-24T13:58:16.884Z,14.39
2023-05-24T14:00:43.989Z,14.64
2023-05-24T14:03:12.884Z,14.72
2023-05-24T14:05:40.913Z,13.79
2023-05-24T14:08:07.677Z,13.94
2023-05-24T14:10:36.909Z,13.83
2023-05-24T14:15:38.074Z,14.28
2023-05-24T14:18:08.282Z,13.62
2023-05-24T14:20:39.979Z,13.46
2023-05-24T14:23:07.706Z,13.46
2023-05-24T14:25:34.328Z,13.93
2023-05-24T14:28:00.991Z,14.40
2023-05-24T14:30:27.804Z,13.79
2023-05-24T14:32:54.519Z,14.51
2023-05-24T14:35:21.221Z,14.38
2023-05-24T14:37:48.001Z,13.80
2023-05-24T14:40:16.981Z,13.84
2023-05-24T14:42:45.215Z,14.09
2023-05-24T14:45:12.633Z,13.82
2023-05-24T14:47:39.339Z,14.37
2023-05-24T14:50:06.864Z,13.70
2023-05-24T14:52:33.816Z,13.72
2023-05-24T14:55:00.743Z,13.35
2023-05-24T14:57:27.549Z,13.35
2023-05-24T14:59:54.207Z,13.18
2023-05-24T15:02:20.942Z,13.77
2023-05-24T15:04:47.538Z,14.28
2023-05-24T15:07:14.199Z,13.51
2023-05-24T15:09:40.754Z,13.86
2023-05-24T15:12:08.559Z,13.38
2023-05-24T15:14:35.057Z,12.64
2023-05-24T15:17:02.146Z,13.16
2023-05-24T15:19:28.696Z,13.23
2023-05-24T15:21:55.337Z,13.54
2023-05-24T15:24:21.917Z,13.65
2023-05-24T15:26:48.377Z,13.33
2023-05-24T15:29:14.922Z,13.45
2023-05-24T15:31:41.617Z,13.57
2023-05-24T15:34:08.327Z,13.51
2023-05-24T15:36:34.761Z,13.21
2023-05-24T15:39:01.409Z,13.48
2023-05-24T15:41:28.307Z,13.16
2023-05-24T15:43:54.976Z,13.49
2023-05-24T15:46:22.540Z,13.39
2023-05-24T15:48:49.191Z,14.12
2023-05-24T15:53:45.502Z,14.10
2023-05-24T15:56:12.095Z,13.94
2023-05-24T15:58:38.519Z,14.24
2023-05-24T16:01:05.363Z,14.76
2023-05-24T16:03:31.998Z,14.31
2023-05-24T16:05:58.558Z,13.92
2023-05-24T16:08:27.918Z,13.63
2023-05-24T16:10:55.311Z,13.33
2023-05-24T16:13:22.094Z,13.55
2023-05-24T16:15:51.611Z,14.17
2023-05-24T16:18:22.737Z,13.90
2023-05-24T16:20:50.924Z,14.31
2023-05-24T16:23:19.241Z,14.65
2023-05-24T16:25:46.301Z,15.09
2023-05-24T16:28:12.830Z,15.11
2023-05-24T16:30:39.269Z,15.12
2023-05-24T16:33:06.105Z,15.17
2023-05-24T16:35:33.776Z,15.08
2023-05-24T16:38:00.677Z,13.82
2023-05-24T16:40:28.862Z,14.64
2023-05-24T16:42:55.604Z,14.98
2023-05-24T16:45:22.001Z,15.06
2023-05-24T16:47:48.655Z,14.39
2023-05-24T16:50:15.511Z,14.70
2023-05-24T16:52:45.592Z,15.00
2023-05-24T16:55:12.520Z,14.81
2023-05-24T16:57:39.204Z,14.33
2023-05-24T17:00:06.646Z,14.30
2023-05-24T17:02:34.203Z,14.19
2023-05-24T17:05:01.077Z,14.00
2023-05-24T17:07:27.934Z,14.09
2023-05-24T17:09:54.497Z,14.08
2023-05-24T17:12:23.992Z,13.91
2023-05-24T17:14:50.494Z,14.02
2023-05-24T17:17:16.989Z,13.99
2023-05-24T17:19:43.503Z,14.35
2023-05-24T17:22:11.201Z,14.41
2023-05-24T17:24:37.755Z,14.27
2023-05-24T17:27:05.018Z,14.34
2023-05-24T17:29:34.940Z,14.53
2023-05-24T17:32:01.682Z,14.61
2023-05-24T17:34:28.444Z,13.93
2023-05-24T17:36:54.949Z,13.88
2023-05-24T17:39:21.965Z,14.39
2023-05-24T17:41:48.469Z,14.04
2023-05-24T17:44:15.048Z,13.90
2023-05-24T17:46:41.924Z,14.09
2023-05-24T17:49:08.568Z,13.96
2023-05-24T17:51:35.267Z,13.99
2023-05-24T17:54:01.844Z,13.82
2023-05-24T17:56:30.329Z,14.11
2023-05-24T17:58:57.327Z,13.99
2023-05-24T18:01:24.750Z,13.98
2023-05-24T18:03:51.376Z,13.69
2023-05-24T18:06:17.849Z,13.89
2023-05-24T18:08:44.586Z,13.71
2023-05-24T18:11:13.087Z,13.77
2023-05-24T18:13:41.821Z,13.73
2023-05-24T18:16:10.775Z,13.63
2023-05-24T18:18:37.874Z,13.39
2023-05-24T18:21:05.381Z,13.15
2023-05-24T18:23:34.112Z,13.23
2023-05-24T18:26:02.968Z,13.23
2023-05-24T18:28:29.813Z,13.16
2023-05-24T18:30:56.362Z,13.26
2023-05-24T18:33:23.145Z,12.97
2023-05-24T18:35:49.779Z,12.76
2023-05-24T18:38:16.262Z,13.18
2023-05-24T18:40:42.844Z,12.88
2023-05-24T18:43:09.281Z,12.72
2023-05-24T18:45:35.920Z,12.39
2023-05-24T18:48:02.687Z,12.33
2023-05-24T18:50:29.233Z,12.63
2023-05-24T18:52:55.917Z,12.68
2023-05-24T18:55:22.426Z,12.42
2023-05-24T18:57:49.153Z,12.46
2023-05-24T19:00:17.813Z,12.41
2023-05-24T19:02:44.392Z,12.38
2023-05-24T19:05:10.993Z,12.21
2023-05-24T19:07:37.406Z,12.17
2023-05-24T19:10:04.446Z,11.82
2023-05-24T19:12:31.094Z,11.91
2023-05-24T19:14:57.490Z,11.99
2023-05-24T19:17:24.932Z,11.90
2023-05-24T19:19:52.456Z,11.85
2023-05-24T19:22:19.236Z,11.70
2023-05-24T19:24:45.939Z,11.59
2023-05-24T19:27:12.762Z,11.69
2023-05-24T19:29:39.975Z,11.66
2023-05-24T19:32:07.339Z,11.56
2023-05-24T19:34:35.257Z,11.51
2023-05-24T19:37:01.809Z,11.32
2023-05-24T19:39:28.369Z,11.06
2023-05-24T19:41:54.828Z,11.46
2023-05-24T19:44:21.556Z,11.23
2023-05-24T19:46:48.137Z,11.23
2023-05-24T19:49:14.529Z,11.24
2023-05-24T19:51:41.060Z,11.05
2023-05-24T19:54:09.237Z,11.14
2023-05-24T19:56:36.229Z,10.97
2023-05-24T19:59:02.836Z,11.08
2023-05-24T20:01:29.344Z,10.94
2023-05-24T20:03:56.171Z,10.86
2023-05-24T20:06:22.746Z,10.87
2023-05-24T20:08:49.265Z,10.87
2023-05-24T20:11:15.854Z,10.73
2023-05-24T20:13:42.276Z,10.75
2023-05-24T20:16:08.894Z,10.39
2023-05-24T20:18:35.511Z,10.55
2023-05-24T20:21:04.773Z,10.43
2023-05-24T20:23:31.826Z,10.46
2023-05-24T20:25:58.335Z,10.50
2023-05-24T20:28:30.672Z,10.54
2023-05-24T20:30:58.697Z,10.53
2023-05-24T20:33:25.220Z,10.16
2023-05-24T20:35:53.071Z,10.04
2023-05-24T20:38:20.223Z,10.07
2023-05-24T20:40:46.778Z,10.46
2023-05-24T20:43:13.245Z,10.41
2023-05-24T20:45:39.960Z,10.22
2023-05-24T20:48:06.741Z,10.24
2023-05-24T20:50:33.359Z,10.32
2023-05-24T20:52:59.812Z,10.39
2023-05-24T20:55:27.154Z,10.29
2023-05-24T20:57:54.122Z,10.37
2023-05-24T21:00:20.667Z,10.16
2023-05-24T21:02:47.290Z,10.39
2023-05-24T21:05:14.137Z,10.23
2023-05-24T21:07:40.701Z,10.08
2023-05-24T21:10:07.724Z,9.92
2023-05-24T21:12:34.240Z,9.78
2023-05-24T21:15:00.798Z,9.99
2023-05-24T21:17:27.345Z,10.02
2023-05-24T21:19:53.912Z,9.92
2023-05-24T21:22:20.488Z,9.88
2023-05-24T21:24:46.988Z,10.00
2023-05-24T21:27:13.540Z,10.14
2023-05-24T21:29:41.694Z,10.23
2023-05-24T21:32:08.182Z,10.00
2023-05-24T21:34:35.813Z,10.09
2023-05-24T21:37:02.588Z,10.03
2023-05-24T21:39:29.276Z,9.91
2023-05-24T21:41:55.751Z,10.14
2023-05-24T21:44:22.343Z,10.31
2023-05-24T21:46:48.827Z,10.16
2023-05-24T21:49:17.195Z,10.21
2023-05-24T21:51:43.705Z,9.91
2023-05-24T21:54:10.133Z,10.38
2023-05-24T21:56:37.470Z,10.29
2023-05-24T21:59:04.016Z,10.26
2023-05-24T22:17:42.479Z,9.73
2023-05-24T22:20:10.593Z,9.84
2023-05-24T22:22:40.109Z,10.08
2023-05-24T22:25:08.701Z,10.30
2023-05-24T22:27:35.910Z,10.17
2023-05-24T22:30:02.541Z,10.05
2023-05-24T22:32:29.133Z,9.95
2023-05-24T22:34:55.840Z,9.98
2023-05-24T22:37:22.380Z,10.03
2023-05-24T22:39:48.845Z,10.21
2023-05-24T22:42:15.406Z,10.20
2023-05-24T22:44:41.907Z,10.20
2023-05-24T22:47:08.446Z,9.78
2023-05-24T22:49:35.725Z,9.88
2023-05-24T22:52:02.460Z,9.75
2023-05-24T22:54:28.974Z,10.02
2023-05-24T22:56:56.683Z,9.79
2023-05-24T22:59:23.206Z,9.77
2023-05-24T23:01:50.183Z,9.57
2023-05-24T23:04:20.955Z,9.78
2023-05-24T23:06:52.342Z,9.45
2023-05-24T23:09:28.866Z,9.26
2023-05-24T23:11:58.351Z,9.26
2023-05-24T23:14:25.237Z,9.41
2023-05-24T23:16:51.768Z,9.49
2023-05-24T23:19:18.711Z,9.54
2023-05-24T23:21:45.840Z,9.35
2023-05-24T23:24:15.780Z,9.39
2023-05-24T23:26:42.585Z,9.16
2023-05-24T23:29:09.423Z,9.20
2023-05-24T23:31:36.211Z,9.36
2023-05-24T23:34:05.033Z,9.28
2023-05-24T23:36:31.582Z,9.18
2023-05-24T23:38:58.041Z,9.32
2023-05-24T23:41:24.617Z,9.26
2023-05-24T23:43:52.325Z,9.43
2023-05-24T23:46:19.255Z,9.35
2023-05-24T23:48:46.136Z,9.43
2023-05-24T23:51:12.774Z,9.15
2023-05-24T23:53:39.381Z,9.23
2023-05-24T23:56:06.007Z,9.39
2023-05-24T23:58:33.448Z,9.54
